sensor_id;sensor_type;location;lat;lon;timestamp;temperature;humidity
27671;DHT22;15077;49.704;9.908;2022-11-20T00:02:25;6.30;69.20
27671;DHT22;15077;49.704;9.908;2022-11-20T00:04:51;6.30;69.20
27671;DHT22;15077;49.704;9.908;2022-11-20T00:07:17;6.30;69.20
27671;DHT22;15077;49.704;9.908;2022-11-20T00:09:42;6.30;69.20
27671;DHT22;15077;49.704;9.908;2022-11-20T00:12:08;6.30;69.20
27671;DHT22;15077;49.704;9.908;2022-11-20T00:14:34;6.30;69.10
27671;DHT22;15077;49.704;9.908;2022-11-20T00:17:00;6.30;69.10
27671;DHT22;15077;49.704;9.908;2022-11-20T00:19:25;6.30;69.10
27671;DHT22;15077;49.704;9.908;2022-11-20T00:21:51;6.30;69.10
27671;DHT22;15077;49.704;9.908;2022-11-20T00:24:19;6.20;69.10
27671;DHT22;15077;49.704;9.908;2022-11-20T00:26:44;6.30;69.10
27671;DHT22;15077;49.704;9.908;2022-11-20T00:29:13;6.30;69.10
27671;DHT22;15077;49.704;9.908;2022-11-20T00:31:38;6.30;69.20
27671;DHT22;15077;49.704;9.908;2022-11-20T00:34:04;6.30;69.10
27671;DHT22;15077;49.704;9.908;2022-11-20T00:36:31;6.30;69.20
27671;DHT22;15077;49.704;9.908;2022-11-20T00:38:58;6.30;69.20
27671;DHT22;15077;49.704;9.908;2022-11-20T00:41:25;6.30;69.10
27671;DHT22;15077;49.704;9.908;2022-11-20T00:43:55;6.30;69.10
27671;DHT22;15077;49.704;9.908;2022-11-20T00:46:22;6.30;69.10
27671;DHT22;15077;49.704;9.908;2022-11-20T00:48:50;6.30;69.10
27671;DHT22;15077;49.704;9.908;2022-11-20T00:51:17;6.30;69.10
27671;DHT22;15077;49.704;9.908;2022-11-20T00:53:45;6.30;69.10
27671;DHT22;15077;49.704;9.908;2022-11-20T00:56:12;6.30;69.20
27671;DHT22;15077;49.704;9.908;2022-11-20T00:58:42;6.30;69.10
27671;DHT22;15077;49.704;9.908;2022-11-20T01:01:13;6.30;69.10
27671;DHT22;15077;49.704;9.908;2022-11-20T01:03:42;6.30;69.10
27671;DHT22;15077;49.704;9.908;2022-11-20T01:06:10;6.30;69.10
27671;DHT22;15077;49.704;9.908;2022-11-20T01:08:44;6.30;69.20
27671;DHT22;15077;49.704;9.908;2022-11-20T01:11:16;6.30;69.10
27671;DHT22;15077;49.704;9.908;2022-11-20T01:13:45;6.30;69.10
27671;DHT22;15077;49.704;9.908;2022-11-20T01:16:14;6.30;69.10
27671;DHT22;15077;49.704;9.908;2022-11-20T01:18:44;6.30;69.20
27671;DHT22;15077;49.704;9.908;2022-11-20T01:21:14;6.30;69.20
27671;DHT22;15077;49.704;9.908;2022-11-20T01:23:47;6.30;69.10
27671;DHT22;15077;49.704;9.908;2022-11-20T01:26:15;6.30;69.20
27671;DHT22;15077;49.704;9.908;2022-11-20T01:28:42;6.30;69.10
27671;DHT22;15077;49.704;9.908;2022-11-20T01:31:12;6.30;69.10
27671;DHT22;15077;49.704;9.908;2022-11-20T01:33:40;6.30;69.10
27671;DHT22;15077;49.704;9.908;2022-11-20T01:36:06;6.30;69.10
27671;DHT22;15077;49.704;9.908;2022-11-20T01:38:32;6.30;69.10
27671;DHT22;15077;49.704;9.908;2022-11-20T01:40:58;6.30;69.10
27671;DHT22;15077;49.704;9.908;2022-11-20T01:43:24;6.30;69.10
27671;DHT22;15077;49.704;9.908;2022-11-20T01:46:02;6.30;69.10
27671;DHT22;15077;49.704;9.908;2022-11-20T01:48:40;6.30;69.10
27671;DHT22;15077;49.704;9.908;2022-11-20T01:51:45;6.30;69.10
27671;DHT22;15077;49.704;9.908;2022-11-20T01:54:15;6.30;69.10
27671;DHT22;15077;49.704;9.908;2022-11-20T01:56:45;6.30;69.10
27671;DHT22;15077;49.704;9.908;2022-11-20T01:59:13;6.30;69.10
27671;DHT22;15077;49.704;9.908;2022-11-20T02:01:41;6.30;69.10
27671;DHT22;15077;49.704;9.908;2022-11-20T02:04:07;6.30;69.10
27671;DHT22;15077;49.704;9.908;2022-11-20T02:06:42;6.30;69.10
27671;DHT22;15077;49.704;9.908;2022-11-20T02:09:11;6.30;69.10
27671;DHT22;15077;49.704;9.908;2022-11-20T02:11:37;6.30;69.10
27671;DHT22;15077;49.704;9.908;2022-11-20T02:14:02;6.30;69.00
27671;DHT22;15077;49.704;9.908;2022-11-20T02:16:39;6.30;69.00
27671;DHT22;15077;49.704;9.908;2022-11-20T02:19:20;6.30;69.00
27671;DHT22;15077;49.704;9.908;2022-11-20T02:21:56;6.30;69.10
27671;DHT22;15077;49.704;9.908;2022-11-20T02:24:25;6.30;69.00
27671;DHT22;15077;49.704;9.908;2022-11-20T02:26:52;6.30;69.00
27671;DHT22;15077;49.704;9.908;2022-11-20T02:29:28;6.30;69.00
27671;DHT22;15077;49.704;9.908;2022-11-20T02:32:23;6.30;69.00
27671;DHT22;15077;49.704;9.908;2022-11-20T02:34:53;6.30;69.00
27671;DHT22;15077;49.704;9.908;2022-11-20T02:37:19;6.30;69.00
27671;DHT22;15077;49.704;9.908;2022-11-20T02:39:49;6.30;69.00
27671;DHT22;15077;49.704;9.908;2022-11-20T02:42:16;6.30;69.00
27671;DHT22;15077;49.704;9.908;2022-11-20T02:44:42;6.30;69.00
27671;DHT22;15077;49.704;9.908;2022-11-20T02:47:07;6.30;69.00
27671;DHT22;15077;49.704;9.908;2022-11-20T02:49:33;6.30;69.00
27671;DHT22;15077;49.704;9.908;2022-11-20T02:51:59;6.20;69.00
27671;DHT22;15077;49.704;9.908;2022-11-20T02:54:25;6.20;69.00
27671;DHT22;15077;49.704;9.908;2022-11-20T02:56:51;6.30;69.00
27671;DHT22;15077;49.704;9.908;2022-11-20T02:59:17;6.20;69.60
27671;DHT22;15077;49.704;9.908;2022-11-20T03:01:42;6.20;69.00
27671;DHT22;15077;49.704;9.908;2022-11-20T03:04:08;6.20;68.90
27671;DHT22;15077;49.704;9.908;2022-11-20T03:06:34;6.20;68.90
27671;DHT22;15077;49.704;9.908;2022-11-20T03:09:00;6.30;69.00
27671;DHT22;15077;49.704;9.908;2022-11-20T03:11:25;6.20;68.90
27671;DHT22;15077;49.704;9.908;2022-11-20T03:13:51;6.20;68.90
27671;DHT22;15077;49.704;9.908;2022-11-20T03:16:18;6.20;68.90
27671;DHT22;15077;49.704;9.908;2022-11-20T03:18:45;6.20;68.90
27671;DHT22;15077;49.704;9.908;2022-11-20T03:21:11;6.20;68.90
27671;DHT22;15077;49.704;9.908;2022-11-20T03:23:38;6.20;68.90
27671;DHT22;15077;49.704;9.908;2022-11-20T03:26:15;6.20;68.90
27671;DHT22;15077;49.704;9.908;2022-11-20T03:28:42;6.20;69.00
27671;DHT22;15077;49.704;9.908;2022-11-20T03:31:12;6.20;68.90
27671;DHT22;15077;49.704;9.908;2022-11-20T03:33:39;6.20;68.90
27671;DHT22;15077;49.704;9.908;2022-11-20T03:36:07;6.20;68.90
27671;DHT22;15077;49.704;9.908;2022-11-20T03:38:34;6.20;69.00
27671;DHT22;15077;49.704;9.908;2022-11-20T03:41:00;6.20;68.90
27671;DHT22;15077;49.704;9.908;2022-11-20T03:43:27;6.20;68.90
27671;DHT22;15077;49.704;9.908;2022-11-20T03:45:53;6.20;69.50
27671;DHT22;15077;49.704;9.908;2022-11-20T03:48:19;6.20;68.90
27671;DHT22;15077;49.704;9.908;2022-11-20T03:50:44;6.20;68.90
27671;DHT22;15077;49.704;9.908;2022-11-20T03:53:13;6.20;68.90
27671;DHT22;15077;49.704;9.908;2022-11-20T03:55:39;6.20;68.90
27671;DHT22;15077;49.704;9.908;2022-11-20T03:58:05;6.20;69.00
27671;DHT22;15077;49.704;9.908;2022-11-20T04:00:30;6.20;69.00
27671;DHT22;15077;49.704;9.908;2022-11-20T04:02:59;6.20;69.00
27671;DHT22;15077;49.704;9.908;2022-11-20T04:05:28;6.20;69.00
27671;DHT22;15077;49.704;9.908;2022-11-20T04:07:54;6.20;69.00
27671;DHT22;15077;49.704;9.908;2022-11-20T04:10:19;6.20;69.00
27671;DHT22;15077;49.704;9.908;2022-11-20T04:12:45;6.20;68.90
27671;DHT22;15077;49.704;9.908;2022-11-20T04:15:11;6.20;69.00
27671;DHT22;15077;49.704;9.908;2022-11-20T04:17:38;6.10;68.90
27671;DHT22;15077;49.704;9.908;2022-11-20T04:20:04;6.10;68.90
27671;DHT22;15077;49.704;9.908;2022-11-20T04:22:30;6.10;68.90
27671;DHT22;15077;49.704;9.908;2022-11-20T04:24:56;6.10;69.00
27671;DHT22;15077;49.704;9.908;2022-11-20T04:27:21;6.10;68.90
27671;DHT22;15077;49.704;9.908;2022-11-20T04:29:47;6.10;68.90
27671;DHT22;15077;49.704;9.908;2022-11-20T04:32:12;6.10;68.90
27671;DHT22;15077;49.704;9.908;2022-11-20T04:34:38;6.10;69.00
27671;DHT22;15077;49.704;9.908;2022-11-20T04:37:03;6.10;68.90
27671;DHT22;15077;49.704;9.908;2022-11-20T04:39:29;6.10;69.00
27671;DHT22;15077;49.704;9.908;2022-11-20T04:41:55;6.10;69.00
27671;DHT22;15077;49.704;9.908;2022-11-20T04:44:39;6.10;69.00
27671;DHT22;15077;49.704;9.908;2022-11-20T04:47:05;6.10;69.00
27671;DHT22;15077;49.704;9.908;2022-11-20T04:49:31;6.10;69.00
27671;DHT22;15077;49.704;9.908;2022-11-20T04:51:57;6.10;69.00
27671;DHT22;15077;49.704;9.908;2022-11-20T04:54:23;6.10;69.00
27671;DHT22;15077;49.704;9.908;2022-11-20T04:56:49;6.10;69.00
27671;DHT22;15077;49.704;9.908;2022-11-20T04:59:15;6.10;69.00
27671;DHT22;15077;49.704;9.908;2022-11-20T05:01:41;6.10;68.90
27671;DHT22;15077;49.704;9.908;2022-11-20T05:04:07;6.10;69.00
27671;DHT22;15077;49.704;9.908;2022-11-20T05:06:33;6.10;69.00
27671;DHT22;15077;49.704;9.908;2022-11-20T05:08:58;6.10;69.00
27671;DHT22;15077;49.704;9.908;2022-11-20T05:11:24;6.10;69.00
27671;DHT22;15077;49.704;9.908;2022-11-20T05:13:50;6.10;69.00
27671;DHT22;15077;49.704;9.908;2022-11-20T05:16:18;6.10;69.00
27671;DHT22;15077;49.704;9.908;2022-11-20T05:18:45;6.10;69.00
27671;DHT22;15077;49.704;9.908;2022-11-20T05:21:12;6.10;69.00
27671;DHT22;15077;49.704;9.908;2022-11-20T05:23:38;6.10;69.00
27671;DHT22;15077;49.704;9.908;2022-11-20T05:26:05;6.10;69.00
27671;DHT22;15077;49.704;9.908;2022-11-20T05:28:32;6.10;68.90
27671;DHT22;15077;49.704;9.908;2022-11-20T05:31:11;6.10;68.90
27671;DHT22;15077;49.704;9.908;2022-11-20T05:33:39;6.10;68.90
27671;DHT22;15077;49.704;9.908;2022-11-20T05:36:06;6.10;69.00
27671;DHT22;15077;49.704;9.908;2022-11-20T05:38:32;6.10;69.00
27671;DHT22;15077;49.704;9.908;2022-11-20T05:41:05;6.10;69.00
27671;DHT22;15077;49.704;9.908;2022-11-20T05:43:41;6.10;69.00
27671;DHT22;15077;49.704;9.908;2022-11-20T05:46:09;6.10;69.00
27671;DHT22;15077;49.704;9.908;2022-11-20T05:48:36;6.10;69.10
27671;DHT22;15077;49.704;9.908;2022-11-20T05:51:04;6.10;69.00
27671;DHT22;15077;49.704;9.908;2022-11-20T05:53:31;6.10;69.60
27671;DHT22;15077;49.704;9.908;2022-11-20T05:56:01;6.10;69.00
27671;DHT22;15077;49.704;9.908;2022-11-20T05:58:29;6.10;69.00
27671;DHT22;15077;49.704;9.908;2022-11-20T06:01:03;6.20;69.10
27671;DHT22;15077;49.704;9.908;2022-11-20T06:03:48;6.20;69.10
27671;DHT22;15077;49.704;9.908;2022-11-20T06:06:16;6.20;69.10
27671;DHT22;15077;49.704;9.908;2022-11-20T06:08:43;6.20;69.10
27671;DHT22;15077;49.704;9.908;2022-11-20T06:11:10;6.20;69.10
27671;DHT22;15077;49.704;9.908;2022-11-20T06:13:38;6.20;69.10
27671;DHT22;15077;49.704;9.908;2022-11-20T06:16:04;6.20;69.10
27671;DHT22;15077;49.704;9.908;2022-11-20T06:18:30;6.20;69.10
27671;DHT22;15077;49.704;9.908;2022-11-20T06:23:41;6.20;69.10
27671;DHT22;15077;49.704;9.908;2022-11-20T06:26:11;6.20;69.10
27671;DHT22;15077;49.704;9.908;2022-11-20T06:28:40;6.20;69.10
27671;DHT22;15077;49.704;9.908;2022-11-20T06:31:07;6.20;69.10
27671;DHT22;15077;49.704;9.908;2022-11-20T06:33:33;6.20;69.10
27671;DHT22;15077;49.704;9.908;2022-11-20T06:35:59;6.20;69.10
27671;DHT22;15077;49.704;9.908;2022-11-20T06:38:26;6.20;69.10
27671;DHT22;15077;49.704;9.908;2022-11-20T06:40:52;6.20;69.70
27671;DHT22;15077;49.704;9.908;2022-11-20T06:43:18;6.20;69.10
27671;DHT22;15077;49.704;9.908;2022-11-20T06:45:44;6.30;69.10
27671;DHT22;15077;49.704;9.908;2022-11-20T06:48:10;6.30;69.10
27671;DHT22;15077;49.704;9.908;2022-11-20T06:50:36;6.30;69.10
27671;DHT22;15077;49.704;9.908;2022-11-20T06:53:02;6.30;69.10
27671;DHT22;15077;49.704;9.908;2022-11-20T06:55:29;6.30;69.10
27671;DHT22;15077;49.704;9.908;2022-11-20T06:57:55;6.30;69.10
27671;DHT22;15077;49.704;9.908;2022-11-20T07:00:21;6.30;69.10
27671;DHT22;15077;49.704;9.908;2022-11-20T07:02:47;6.30;69.10
27671;DHT22;15077;49.704;9.908;2022-11-20T07:05:12;6.30;69.10
27671;DHT22;15077;49.704;9.908;2022-11-20T07:07:38;6.30;69.10
27671;DHT22;15077;49.704;9.908;2022-11-20T07:10:04;6.30;69.10
27671;DHT22;15077;49.704;9.908;2022-11-20T07:12:30;6.30;69.10
27671;DHT22;15077;49.704;9.908;2022-11-20T07:14:55;6.30;69.10
27671;DHT22;15077;49.704;9.908;2022-11-20T07:17:21;6.30;69.10
27671;DHT22;15077;49.704;9.908;2022-11-20T07:19:47;6.30;69.10
27671;DHT22;15077;49.704;9.908;2022-11-20T07:22:13;6.30;69.10
27671;DHT22;15077;49.704;9.908;2022-11-20T07:24:38;6.30;69.00
27671;DHT22;15077;49.704;9.908;2022-11-20T07:27:04;6.30;69.00
27671;DHT22;15077;49.704;9.908;2022-11-20T07:29:30;6.30;69.00
27671;DHT22;15077;49.704;9.908;2022-11-20T07:31:56;6.30;69.10
27671;DHT22;15077;49.704;9.908;2022-11-20T07:34:22;6.30;69.00
27671;DHT22;15077;49.704;9.908;2022-11-20T07:36:48;6.30;69.00
27671;DHT22;15077;49.704;9.908;2022-11-20T07:39:14;6.30;69.00
27671;DHT22;15077;49.704;9.908;2022-11-20T07:41:39;6.30;69.00
27671;DHT22;15077;49.704;9.908;2022-11-20T07:44:05;6.40;69.10
27671;DHT22;15077;49.704;9.908;2022-11-20T07:46:30;6.40;69.10
27671;DHT22;15077;49.704;9.908;2022-11-20T07:48:56;6.40;69.10
27671;DHT22;15077;49.704;9.908;2022-11-20T07:51:22;6.40;69.10
27671;DHT22;15077;49.704;9.908;2022-11-20T07:53:50;6.40;69.10
27671;DHT22;15077;49.704;9.908;2022-11-20T07:56:16;6.40;69.10
27671;DHT22;15077;49.704;9.908;2022-11-20T07:58:42;6.40;69.10
27671;DHT22;15077;49.704;9.908;2022-11-20T08:01:08;6.40;69.10
27671;DHT22;15077;49.704;9.908;2022-11-20T08:03:34;6.40;69.10
27671;DHT22;15077;49.704;9.908;2022-11-20T08:06:00;6.40;69.10
27671;DHT22;15077;49.704;9.908;2022-11-20T08:08:26;6.40;69.10
27671;DHT22;15077;49.704;9.908;2022-11-20T08:10:53;6.40;69.10
27671;DHT22;15077;49.704;9.908;2022-11-20T08:13:38;6.40;69.10
27671;DHT22;15077;49.704;9.908;2022-11-20T08:16:23;6.40;69.10
27671;DHT22;15077;49.704;9.908;2022-11-20T08:18:48;6.40;69.10
27671;DHT22;15077;49.704;9.908;2022-11-20T08:21:14;6.40;69.10
27671;DHT22;15077;49.704;9.908;2022-11-20T08:23:40;6.40;69.10
27671;DHT22;15077;49.704;9.908;2022-11-20T08:26:06;6.40;69.10
27671;DHT22;15077;49.704;9.908;2022-11-20T08:28:31;6.50;69.10
27671;DHT22;15077;49.704;9.908;2022-11-20T08:30:58;6.40;69.00
27671;DHT22;15077;49.704;9.908;2022-11-20T08:33:25;6.50;69.10
27671;DHT22;15077;49.704;9.908;2022-11-20T08:35:50;6.50;69.10
27671;DHT22;15077;49.704;9.908;2022-11-20T08:38:16;6.50;69.10
27671;DHT22;15077;49.704;9.908;2022-11-20T08:40:41;6.50;69.10
27671;DHT22;15077;49.704;9.908;2022-11-20T08:43:27;6.50;69.10
27671;DHT22;15077;49.704;9.908;2022-11-20T08:45:53;6.50;69.10
27671;DHT22;15077;49.704;9.908;2022-11-20T08:48:21;6.50;69.10
27671;DHT22;15077;49.704;9.908;2022-11-20T08:50:46;6.50;69.10
27671;DHT22;15077;49.704;9.908;2022-11-20T08:53:12;6.50;69.10
27671;DHT22;15077;49.704;9.908;2022-11-20T08:55:37;6.50;69.20
27671;DHT22;15077;49.704;9.908;2022-11-20T08:58:05;6.50;69.20
27671;DHT22;15077;49.704;9.908;2022-11-20T09:00:32;6.50;69.20
27671;DHT22;15077;49.704;9.908;2022-11-20T09:02:58;6.50;69.30
27671;DHT22;15077;49.704;9.908;2022-11-20T09:05:24;6.50;69.20
27671;DHT22;15077;49.704;9.908;2022-11-20T09:07:50;6.60;69.30
27671;DHT22;15077;49.704;9.908;2022-11-20T09:10:15;6.60;69.30
27671;DHT22;15077;49.704;9.908;2022-11-20T09:12:41;6.60;69.30
27671;DHT22;15077;49.704;9.908;2022-11-20T09:15:07;6.60;69.30
27671;DHT22;15077;49.704;9.908;2022-11-20T09:17:33;6.60;69.30
27671;DHT22;15077;49.704;9.908;2022-11-20T09:19:58;6.60;69.20
27671;DHT22;15077;49.704;9.908;2022-11-20T09:22:24;6.60;69.20
27671;DHT22;15077;49.704;9.908;2022-11-20T09:24:49;6.70;69.20
27671;DHT22;15077;49.704;9.908;2022-11-20T09:27:15;6.70;69.20
27671;DHT22;15077;49.704;9.908;2022-11-20T09:29:45;6.70;69.20
27671;DHT22;15077;49.704;9.908;2022-11-20T09:32:11;6.70;69.30
27671;DHT22;15077;49.704;9.908;2022-11-20T09:34:37;6.70;69.30
27671;DHT22;15077;49.704;9.908;2022-11-20T09:37:02;6.70;69.20
27671;DHT22;15077;49.704;9.908;2022-11-20T09:39:28;6.70;69.80
27671;DHT22;15077;49.704;9.908;2022-11-20T09:42:03;6.70;69.20
27671;DHT22;15077;49.704;9.908;2022-11-20T09:47:12;6.70;69.20
27671;DHT22;15077;49.704;9.908;2022-11-20T09:49:58;6.70;69.20
27671;DHT22;15077;49.704;9.908;2022-11-20T09:55:01;6.70;69.20
27671;DHT22;15077;49.704;9.908;2022-11-20T09:57:36;6.70;69.10
27671;DHT22;15077;49.704;9.908;2022-11-20T10:00:05;6.70;69.10
27671;DHT22;15077;49.704;9.908;2022-11-20T10:03:19;6.70;69.10
27671;DHT22;15077;49.704;9.908;2022-11-20T10:08:14;6.70;69.30
27671;DHT22;15077;49.704;9.908;2022-11-20T10:10:42;6.80;69.30
27671;DHT22;15077;49.704;9.908;2022-11-20T10:19:05;6.80;69.60
27671;DHT22;15077;49.704;9.908;2022-11-20T10:29:57;7.20;70.40
27671;DHT22;15077;49.704;9.908;2022-11-20T10:32:38;7.30;70.30
27671;DHT22;15077;49.704;9.908;2022-11-20T10:35:24;7.40;70.30
27671;DHT22;15077;49.704;9.908;2022-11-20T10:37:55;7.40;70.20
27671;DHT22;15077;49.704;9.908;2022-11-20T10:45:45;7.70;70.50
27671;DHT22;15077;49.704;9.908;2022-11-20T10:48:23;7.70;70.30
27671;DHT22;15077;49.704;9.908;2022-11-20T10:50:54;7.90;70.40
27671;DHT22;15077;49.704;9.908;2022-11-20T10:56:27;8.20;70.50
27671;DHT22;15077;49.704;9.908;2022-11-20T11:01:55;8.40;69.80
27671;DHT22;15077;49.704;9.908;2022-11-20T11:09:46;8.30;69.10
27671;DHT22;15077;49.704;9.908;2022-11-20T11:12:14;8.30;69.20
27671;DHT22;15077;49.704;9.908;2022-11-20T11:14:47;8.30;69.20
27671;DHT22;15077;49.704;9.908;2022-11-20T11:17:30;8.20;69.20
27671;DHT22;15077;49.704;9.908;2022-11-20T11:22:28;8.10;69.20
27671;DHT22;15077;49.704;9.908;2022-11-20T11:24:58;8.00;69.20
27671;DHT22;15077;49.704;9.908;2022-11-20T11:27:24;8.00;69.20
27671;DHT22;15077;49.704;9.908;2022-11-20T11:29:50;8.00;69.30
27671;DHT22;15077;49.704;9.908;2022-11-20T11:32:27;7.90;69.30
27671;DHT22;15077;49.704;9.908;2022-11-20T11:35:00;7.90;69.50
27671;DHT22;15077;49.704;9.908;2022-11-20T11:37:28;7.90;69.50
27671;DHT22;15077;49.704;9.908;2022-11-20T11:40:00;7.90;69.50
27671;DHT22;15077;49.704;9.908;2022-11-20T11:42:26;7.80;69.50
27671;DHT22;15077;49.704;9.908;2022-11-20T11:44:53;7.90;69.60
27671;DHT22;15077;49.704;9.908;2022-11-20T11:58:26;7.80;69.70
27671;DHT22;15077;49.704;9.908;2022-11-20T12:01:26;7.80;69.80
27671;DHT22;15077;49.704;9.908;2022-11-20T12:06:29;7.70;69.80
27671;DHT22;15077;49.704;9.908;2022-11-20T12:09:04;7.70;69.90
27671;DHT22;15077;49.704;9.908;2022-11-20T12:11:39;7.70;69.90
27671;DHT22;15077;49.704;9.908;2022-11-20T12:14:16;7.70;69.90
27671;DHT22;15077;49.704;9.908;2022-11-20T12:16:49;7.80;69.90
27671;DHT22;15077;49.704;9.908;2022-11-20T12:19:15;7.70;69.90
27671;DHT22;15077;49.704;9.908;2022-11-20T12:37:34;7.80;69.90
27671;DHT22;15077;49.704;9.908;2022-11-20T12:40:17;7.80;70.00
27671;DHT22;15077;49.704;9.908;2022-11-20T12:43:25;7.80;70.10
27671;DHT22;15077;49.704;9.908;2022-11-20T12:46:13;7.80;70.00
27671;DHT22;15077;49.704;9.908;2022-11-20T13:00:15;7.90;70.10
27671;DHT22;15077;49.704;9.908;2022-11-20T13:08:34;7.90;70.20
27671;DHT22;15077;49.704;9.908;2022-11-20T13:11:12;7.90;70.20
27671;DHT22;15077;49.704;9.908;2022-11-20T13:19:22;7.90;70.30
27671;DHT22;15077;49.704;9.908;2022-11-20T13:21:49;7.90;70.30
27671;DHT22;15077;49.704;9.908;2022-11-20T13:26:43;7.90;70.30
27671;DHT22;15077;49.704;9.908;2022-11-20T13:29:18;8.00;70.30
27671;DHT22;15077;49.704;9.908;2022-11-20T13:31:45;8.00;70.40
27671;DHT22;15077;49.704;9.908;2022-11-20T13:34:25;8.00;70.40
27671;DHT22;15077;49.704;9.908;2022-11-20T13:36:53;8.00;70.40
27671;DHT22;15077;49.704;9.908;2022-11-20T13:39:39;8.10;70.40
27671;DHT22;15077;49.704;9.908;2022-11-20T13:44:38;8.10;70.50
27671;DHT22;15077;49.704;9.908;2022-11-20T13:47:18;8.10;70.50
27671;DHT22;15077;49.704;9.908;2022-11-20T13:49:47;8.10;70.50
27671;DHT22;15077;49.704;9.908;2022-11-20T14:03:41;8.20;70.40
27671;DHT22;15077;49.704;9.908;2022-11-20T14:06:12;8.20;70.40
27671;DHT22;15077;49.704;9.908;2022-11-20T14:08:46;8.20;70.50
27671;DHT22;15077;49.704;9.908;2022-11-20T14:16:23;8.20;70.60
27671;DHT22;15077;49.704;9.908;2022-11-20T14:18:50;8.10;70.60
27671;DHT22;15077;49.704;9.908;2022-11-20T14:21:23;8.20;70.70
27671;DHT22;15077;49.704;9.908;2022-11-20T14:24:04;8.10;70.70
27671;DHT22;15077;49.704;9.908;2022-11-20T14:26:31;8.10;70.70
27671;DHT22;15077;49.704;9.908;2022-11-20T14:28:58;8.10;70.70
27671;DHT22;15077;49.704;9.908;2022-11-20T14:31:24;8.10;70.80
27671;DHT22;15077;49.704;9.908;2022-11-20T14:33:53;8.10;70.70
27671;DHT22;15077;49.704;9.908;2022-11-20T14:36:20;8.10;70.80
27671;DHT22;15077;49.704;9.908;2022-11-20T14:38:48;8.10;70.80
27671;DHT22;15077;49.704;9.908;2022-11-20T14:41:19;8.20;70.80
27671;DHT22;15077;49.704;9.908;2022-11-20T14:43:54;8.20;70.80
27671;DHT22;15077;49.704;9.908;2022-11-20T14:46:22;8.20;70.80
27671;DHT22;15077;49.704;9.908;2022-11-20T14:48:53;8.20;70.80
27671;DHT22;15077;49.704;9.908;2022-11-20T14:56:36;8.20;70.80
27671;DHT22;15077;49.704;9.908;2022-11-20T14:59:01;8.20;70.80
27671;DHT22;15077;49.704;9.908;2022-11-20T15:01:28;8.20;70.80
27671;DHT22;15077;49.704;9.908;2022-11-20T15:04:09;8.20;70.80
27671;DHT22;15077;49.704;9.908;2022-11-20T15:06:37;8.20;70.80
27671;DHT22;15077;49.704;9.908;2022-11-20T15:09:03;8.20;70.80
27671;DHT22;15077;49.704;9.908;2022-11-20T15:11:34;8.20;70.80
27671;DHT22;15077;49.704;9.908;2022-11-20T15:14:02;8.20;70.80
27671;DHT22;15077;49.704;9.908;2022-11-20T15:16:31;8.20;70.80
27671;DHT22;15077;49.704;9.908;2022-11-20T15:18:57;8.20;70.80
27671;DHT22;15077;49.704;9.908;2022-11-20T15:21:23;8.20;70.80
27671;DHT22;15077;49.704;9.908;2022-11-20T15:23:49;8.20;70.70
27671;DHT22;15077;49.704;9.908;2022-11-20T15:26:16;8.30;70.80
27671;DHT22;15077;49.704;9.908;2022-11-20T15:28:47;8.20;70.80
27671;DHT22;15077;49.704;9.908;2022-11-20T15:31:19;8.30;70.80
27671;DHT22;15077;49.704;9.908;2022-11-20T15:33:47;8.30;70.70
27671;DHT22;15077;49.704;9.908;2022-11-20T15:36:13;8.30;70.70
27671;DHT22;15077;49.704;9.908;2022-11-20T15:38:39;8.20;70.60
27671;DHT22;15077;49.704;9.908;2022-11-20T15:41:04;8.30;70.60
27671;DHT22;15077;49.704;9.908;2022-11-20T15:43:30;8.20;70.50
27671;DHT22;15077;49.704;9.908;2022-11-20T15:46:00;8.20;70.50
27671;DHT22;15077;49.704;9.908;2022-11-20T15:48:27;8.20;70.50
27671;DHT22;15077;49.704;9.908;2022-11-20T15:50:59;8.20;70.50
27671;DHT22;15077;49.704;9.908;2022-11-20T15:53:31;8.20;70.40
27671;DHT22;15077;49.704;9.908;2022-11-20T15:55:56;8.20;70.40
27671;DHT22;15077;49.704;9.908;2022-11-20T15:58:22;8.20;70.40
27671;DHT22;15077;49.704;9.908;2022-11-20T16:00:49;8.20;70.50
27671;DHT22;15077;49.704;9.908;2022-11-20T16:03:16;8.20;70.50
27671;DHT22;15077;49.704;9.908;2022-11-20T16:05:42;8.20;70.40
27671;DHT22;15077;49.704;9.908;2022-11-20T16:08:08;8.20;70.40
27671;DHT22;15077;49.704;9.908;2022-11-20T16:10:34;8.20;70.40
27671;DHT22;15077;49.704;9.908;2022-11-20T16:13:01;8.20;70.40
27671;DHT22;15077;49.704;9.908;2022-11-20T16:15:55;8.20;70.40
27671;DHT22;15077;49.704;9.908;2022-11-20T16:18:24;8.10;70.40
27671;DHT22;15077;49.704;9.908;2022-11-20T16:20:51;8.10;70.30
27671;DHT22;15077;49.704;9.908;2022-11-20T16:23:18;8.10;70.30
27671;DHT22;15077;49.704;9.908;2022-11-20T16:25:45;8.10;70.30
27671;DHT22;15077;49.704;9.908;2022-11-20T16:28:12;8.10;70.20
27671;DHT22;15077;49.704;9.908;2022-11-20T16:30:38;8.00;70.20
27671;DHT22;15077;49.704;9.908;2022-11-20T16:33:08;8.00;70.20
27671;DHT22;15077;49.704;9.908;2022-11-20T16:35:36;8.00;70.20
27671;DHT22;15077;49.704;9.908;2022-11-20T16:38:01;8.00;70.30
27671;DHT22;15077;49.704;9.908;2022-11-20T16:40:27;7.90;70.30
27671;DHT22;15077;49.704;9.908;2022-11-20T16:42:53;7.90;70.30
27671;DHT22;15077;49.704;9.908;2022-11-20T16:45:18;7.90;70.30
27671;DHT22;15077;49.704;9.908;2022-11-20T16:47:44;7.90;70.30
27671;DHT22;15077;49.704;9.908;2022-11-20T16:50:10;7.90;70.40
27671;DHT22;15077;49.704;9.908;2022-11-20T16:52:35;7.90;70.40
27671;DHT22;15077;49.704;9.908;2022-11-20T16:55:01;7.80;70.40
27671;DHT22;15077;49.704;9.908;2022-11-20T16:57:28;7.80;70.30
27671;DHT22;15077;49.704;9.908;2022-11-20T16:59:54;7.80;70.30
27671;DHT22;15077;49.704;9.908;2022-11-20T17:02:21;7.80;70.30
27671;DHT22;15077;49.704;9.908;2022-11-20T17:04:47;7.80;70.30
27671;DHT22;15077;49.704;9.908;2022-11-20T17:07:12;7.80;70.30
27671;DHT22;15077;49.704;9.908;2022-11-20T17:09:38;7.80;70.30
27671;DHT22;15077;49.704;9.908;2022-11-20T17:12:04;7.80;70.30
27671;DHT22;15077;49.704;9.908;2022-11-20T17:14:30;7.80;70.30
27671;DHT22;15077;49.704;9.908;2022-11-20T17:16:56;7.70;70.30
27671;DHT22;15077;49.704;9.908;2022-11-20T17:19:22;7.70;70.30
27671;DHT22;15077;49.704;9.908;2022-11-20T17:21:47;7.70;70.30
27671;DHT22;15077;49.704;9.908;2022-11-20T17:24:13;7.70;70.30
27671;DHT22;15077;49.704;9.908;2022-11-20T17:26:40;7.70;70.40
27671;DHT22;15077;49.704;9.908;2022-11-20T17:29:09;7.70;70.40
27671;DHT22;15077;49.704;9.908;2022-11-20T17:31:37;7.70;70.40
27671;DHT22;15077;49.704;9.908;2022-11-20T17:34:04;7.60;70.60
27671;DHT22;15077;49.704;9.908;2022-11-20T17:36:30;7.60;70.90
27671;DHT22;15077;49.704;9.908;2022-11-20T17:38:57;7.70;71.00
27671;DHT22;15077;49.704;9.908;2022-11-20T17:41:23;7.60;71.00
27671;DHT22;15077;49.704;9.908;2022-11-20T17:43:54;7.70;71.10
27671;DHT22;15077;49.704;9.908;2022-11-20T17:46:29;7.70;71.20
27671;DHT22;15077;49.704;9.908;2022-11-20T17:49:00;7.70;71.20
27671;DHT22;15077;49.704;9.908;2022-11-20T17:51:30;7.70;71.20
27671;DHT22;15077;49.704;9.908;2022-11-20T17:53:58;7.70;71.20
27671;DHT22;15077;49.704;9.908;2022-11-20T17:56:31;7.70;71.30
27671;DHT22;15077;49.704;9.908;2022-11-20T17:59:17;7.70;71.30